Von Ormy, Texas
Current Conditions -  °F | °C
As of 4:58 AM on Monday 22 Dec 2014 (Local Time) from KSKF Reporting Station
Overcast Overcast  
Wind Chill: 56°   Ceiling: 500
Heat Index: 56°   Visibility: 10mi
Dew Point: 56°   Wind: 3mph
Humidity: 99%   Direction: NA
Pressure: 29.76"   Gusts: NA
Location:  29.29°N, 98.64°W
Report Text: KSKF 221058Z AUTO VRB03KT 10SM OVC005 13/13 A2976 RMK AO2 SLP076 T01340133 $
Loading
Personal Weather Stations






























Interactive Weather Map New forecast layout! Learn more

10-Day Weather Forecast

Advertisements
Track Severe Weather on mobile